Sentmenat, Spain
Current Conditions -  °F | °C
As of 12:00 PM on Wednesday 26 Nov 2014 (Local Time) from LELL Reporting Station
Thunderstorm Thunderstorm  
Wind Chill: 59°   Ceiling: 1000
Heat Index: 59°   Visibility: 2.5mi
Dew Point: 59°   Wind: 0mph
Humidity: 100%   Direction: NA
Pressure: 29.88"   Gusts: NA
Location:  41.61°N, 2.14°E
Report Text: LELL 261100Z 00000KT 4000 SHRA VCTS FEW002 BKN010TCU FEW020CB 15/15 Q1012
Loading
Personal Weather Stations






























Interactive Weather Map New forecast layout! Learn more

10-Day Weather Forecast

Advertisements
Track Severe Weather on mobile